sensor_id;sensor_type;location;lat;lon;timestamp;temperature;humidity
12436;DHT22;6282;51.440;6.938;2022-11-14T00:00:04;5.10;99.90
12436;DHT22;6282;51.440;6.938;2022-11-14T00:02:31;5.00;99.90
12436;DHT22;6282;51.440;6.938;2022-11-14T00:04:58;5.00;99.90
12436;DHT22;6282;51.440;6.938;2022-11-14T00:07:28;5.00;99.90
12436;DHT22;6282;51.440;6.938;2022-11-14T00:09:55;5.30;99.90
12436;DHT22;6282;51.440;6.938;2022-11-14T00:12:22;5.20;99.90
12436;DHT22;6282;51.440;6.938;2022-11-14T00:14:49;4.90;99.90
12436;DHT22;6282;51.440;6.938;2022-11-14T00:17:17;4.70;99.90
12436;DHT22;6282;51.440;6.938;2022-11-14T00:19:43;4.60;99.90
12436;DHT22;6282;51.440;6.938;2022-11-14T00:22:10;4.70;99.90
12436;DHT22;6282;51.440;6.938;2022-11-14T00:24:38;5.10;99.90
12436;DHT22;6282;51.440;6.938;2022-11-14T00:27:05;5.00;99.90
12436;DHT22;6282;51.440;6.938;2022-11-14T00:29:32;5.10;99.90
12436;DHT22;6282;51.440;6.938;2022-11-14T00:31:59;5.10;99.90
12436;DHT22;6282;51.440;6.938;2022-11-14T00:34:25;5.20;99.90
12436;DHT22;6282;51.440;6.938;2022-11-14T00:36:52;4.80;99.90
12436;DHT22;6282;51.440;6.938;2022-11-14T00:39:19;4.90;99.90
12436;DHT22;6282;51.440;6.938;2022-11-14T00:41:48;5.10;99.90
12436;DHT22;6282;51.440;6.938;2022-11-14T00:44:14;4.90;99.90
12436;DHT22;6282;51.440;6.938;2022-11-14T00:46:41;4.70;99.90
12436;DHT22;6282;51.440;6.938;2022-11-14T00:49:08;4.60;99.90
12436;DHT22;6282;51.440;6.938;2022-11-14T00:51:35;4.80;99.90
12436;DHT22;6282;51.440;6.938;2022-11-14T00:54:02;4.70;99.90
12436;DHT22;6282;51.440;6.938;2022-11-14T00:56:29;4.90;99.90
12436;DHT22;6282;51.440;6.938;2022-11-14T00:58:57;4.70;99.90
12436;DHT22;6282;51.440;6.938;2022-11-14T01:01:24;4.70;99.90
12436;DHT22;6282;51.440;6.938;2022-11-14T01:03:51;4.70;99.90
12436;DHT22;6282;51.440;6.938;2022-11-14T01:06:18;4.70;99.90
12436;DHT22;6282;51.440;6.938;2022-11-14T01:08:45;4.70;99.90
12436;DHT22;6282;51.440;6.938;2022-11-14T01:11:15;4.40;99.90
12436;DHT22;6282;51.440;6.938;2022-11-14T01:13:42;4.60;99.90
12436;DHT22;6282;51.440;6.938;2022-11-14T01:16:11;4.40;99.90
12436;DHT22;6282;51.440;6.938;2022-11-14T01:18:38;4.60;99.90
12436;DHT22;6282;51.440;6.938;2022-11-14T01:21:08;4.50;99.90
12436;DHT22;6282;51.440;6.938;2022-11-14T01:23:35;4.40;99.90
12436;DHT22;6282;51.440;6.938;2022-11-14T01:26:03;4.30;99.90
12436;DHT22;6282;51.440;6.938;2022-11-14T01:28:33;4.40;99.90
12436;DHT22;6282;51.440;6.938;2022-11-14T01:31:07;4.50;99.90
12436;DHT22;6282;51.440;6.938;2022-11-14T01:33:35;4.30;99.90
12436;DHT22;6282;51.440;6.938;2022-11-14T01:36:03;4.40;99.90
12436;DHT22;6282;51.440;6.938;2022-11-14T01:38:29;4.50;99.90
12436;DHT22;6282;51.440;6.938;2022-11-14T01:40:56;4.50;99.90
12436;DHT22;6282;51.440;6.938;2022-11-14T01:43:25;4.40;99.90
12436;DHT22;6282;51.440;6.938;2022-11-14T01:45:55;4.40;99.90
12436;DHT22;6282;51.440;6.938;2022-11-14T01:48:27;4.40;99.90
12436;DHT22;6282;51.440;6.938;2022-11-14T01:50:58;4.30;99.90
12436;DHT22;6282;51.440;6.938;2022-11-14T01:53:26;4.30;99.90
12436;DHT22;6282;51.440;6.938;2022-11-14T01:55:55;4.20;99.90
12436;DHT22;6282;51.440;6.938;2022-11-14T01:58:23;4.20;99.90
12436;DHT22;6282;51.440;6.938;2022-11-14T02:00:51;4.10;99.90
12436;DHT22;6282;51.440;6.938;2022-11-14T02:03:18;4.50;99.90
12436;DHT22;6282;51.440;6.938;2022-11-14T02:05:47;4.20;99.90
12436;DHT22;6282;51.440;6.938;2022-11-14T02:08:16;3.90;99.90
12436;DHT22;6282;51.440;6.938;2022-11-14T02:10:43;4.10;99.90
12436;DHT22;6282;51.440;6.938;2022-11-14T02:13:10;4.00;99.90
12436;DHT22;6282;51.440;6.938;2022-11-14T02:15:36;4.30;99.90
12436;DHT22;6282;51.440;6.938;2022-11-14T02:18:04;4.30;99.90
12436;DHT22;6282;51.440;6.938;2022-11-14T02:20:36;4.30;99.90
12436;DHT22;6282;51.440;6.938;2022-11-14T02:23:08;4.10;99.90
12436;DHT22;6282;51.440;6.938;2022-11-14T02:25:36;4.00;99.90
12436;DHT22;6282;51.440;6.938;2022-11-14T02:28:03;3.70;99.90
12436;DHT22;6282;51.440;6.938;2022-11-14T02:30:31;3.90;99.90
12436;DHT22;6282;51.440;6.938;2022-11-14T02:32:58;3.80;99.90
12436;DHT22;6282;51.440;6.938;2022-11-14T02:35:25;3.70;99.90
12436;DHT22;6282;51.440;6.938;2022-11-14T02:37:53;3.90;99.90
12436;DHT22;6282;51.440;6.938;2022-11-14T02:40:20;4.10;99.90
12436;DHT22;6282;51.440;6.938;2022-11-14T02:42:47;4.10;99.90
12436;DHT22;6282;51.440;6.938;2022-11-14T02:45:14;4.00;99.90
12436;DHT22;6282;51.440;6.938;2022-11-14T02:47:41;4.10;99.90
12436;DHT22;6282;51.440;6.938;2022-11-14T02:50:08;4.00;99.90
12436;DHT22;6282;51.440;6.938;2022-11-14T02:52:35;3.70;99.90
12436;DHT22;6282;51.440;6.938;2022-11-14T02:55:03;3.60;99.90
12436;DHT22;6282;51.440;6.938;2022-11-14T02:57:30;3.50;99.90
12436;DHT22;6282;51.440;6.938;2022-11-14T02:59:57;3.70;99.90
12436;DHT22;6282;51.440;6.938;2022-11-14T03:02:24;3.70;99.90
12436;DHT22;6282;51.440;6.938;2022-11-14T03:04:51;3.60;99.90
12436;DHT22;6282;51.440;6.938;2022-11-14T03:07:18;3.90;99.90
12436;DHT22;6282;51.440;6.938;2022-11-14T03:09:45;3.80;99.90
12436;DHT22;6282;51.440;6.938;2022-11-14T03:12:16;3.90;99.90
12436;DHT22;6282;51.440;6.938;2022-11-14T03:14:43;3.90;99.90
12436;DHT22;6282;51.440;6.938;2022-11-14T03:17:10;3.80;99.90
12436;DHT22;6282;51.440;6.938;2022-11-14T03:19:37;3.50;99.90
12436;DHT22;6282;51.440;6.938;2022-11-14T03:22:04;3.60;99.90
12436;DHT22;6282;51.440;6.938;2022-11-14T03:24:31;3.50;99.90
12436;DHT22;6282;51.440;6.938;2022-11-14T03:26:58;3.60;99.90
12436;DHT22;6282;51.440;6.938;2022-11-14T03:29:26;3.50;99.90
12436;DHT22;6282;51.440;6.938;2022-11-14T03:31:53;3.60;99.90
12436;DHT22;6282;51.440;6.938;2022-11-14T03:34:20;3.30;99.90
12436;DHT22;6282;51.440;6.938;2022-11-14T03:36:47;3.40;99.90
12436;DHT22;6282;51.440;6.938;2022-11-14T03:39:13;3.60;99.90
12436;DHT22;6282;51.440;6.938;2022-11-14T03:41:40;3.60;99.90
12436;DHT22;6282;51.440;6.938;2022-11-14T03:44:07;3.70;99.90
12436;DHT22;6282;51.440;6.938;2022-11-14T03:46:35;3.70;99.90
12436;DHT22;6282;51.440;6.938;2022-11-14T03:49:02;3.50;99.90
12436;DHT22;6282;51.440;6.938;2022-11-14T03:51:29;3.40;99.90
12436;DHT22;6282;51.440;6.938;2022-11-14T03:53:56;3.40;99.90
12436;DHT22;6282;51.440;6.938;2022-11-14T03:56:23;3.30;99.90
12436;DHT22;6282;51.440;6.938;2022-11-14T03:58:49;3.40;99.90
12436;DHT22;6282;51.440;6.938;2022-11-14T04:01:16;3.50;99.90
12436;DHT22;6282;51.440;6.938;2022-11-14T04:03:44;3.60;99.90
12436;DHT22;6282;51.440;6.938;2022-11-14T04:06:11;3.60;99.90
12436;DHT22;6282;51.440;6.938;2022-11-14T04:08:39;3.30;99.90
12436;DHT22;6282;51.440;6.938;2022-11-14T04:11:05;3.30;99.90
12436;DHT22;6282;51.440;6.938;2022-11-14T04:13:32;3.50;99.90
12436;DHT22;6282;51.440;6.938;2022-11-14T04:15:59;3.40;99.90
12436;DHT22;6282;51.440;6.938;2022-11-14T04:18:26;3.30;99.90
12436;DHT22;6282;51.440;6.938;2022-11-14T04:20:55;3.50;99.90
12436;DHT22;6282;51.440;6.938;2022-11-14T04:23:21;3.70;99.90
12436;DHT22;6282;51.440;6.938;2022-11-14T04:25:48;3.70;99.90
12436;DHT22;6282;51.440;6.938;2022-11-14T04:28:15;3.50;99.90
12436;DHT22;6282;51.440;6.938;2022-11-14T04:30:42;3.50;99.90
12436;DHT22;6282;51.440;6.938;2022-11-14T04:33:10;3.50;99.90
12436;DHT22;6282;51.440;6.938;2022-11-14T04:35:37;3.40;99.90
12436;DHT22;6282;51.440;6.938;2022-11-14T04:38:05;3.60;99.90
12436;DHT22;6282;51.440;6.938;2022-11-14T04:40:32;3.50;99.90
12436;DHT22;6282;51.440;6.938;2022-11-14T04:42:59;3.50;99.90
12436;DHT22;6282;51.440;6.938;2022-11-14T04:45:26;3.40;99.90
12436;DHT22;6282;51.440;6.938;2022-11-14T04:47:53;3.50;99.90
12436;DHT22;6282;51.440;6.938;2022-11-14T04:50:20;3.40;99.90
12436;DHT22;6282;51.440;6.938;2022-11-14T04:52:50;3.50;99.90
12436;DHT22;6282;51.440;6.938;2022-11-14T04:55:18;3.40;99.90
12436;DHT22;6282;51.440;6.938;2022-11-14T04:57:45;3.30;99.90
12436;DHT22;6282;51.440;6.938;2022-11-14T05:00:13;3.50;99.90
12436;DHT22;6282;51.440;6.938;2022-11-14T05:02:40;3.50;99.90
12436;DHT22;6282;51.440;6.938;2022-11-14T05:05:07;3.30;99.90
12436;DHT22;6282;51.440;6.938;2022-11-14T05:07:34;3.10;99.90
12436;DHT22;6282;51.440;6.938;2022-11-14T05:10:01;3.20;99.90
12436;DHT22;6282;51.440;6.938;2022-11-14T05:12:29;3.30;99.90
12436;DHT22;6282;51.440;6.938;2022-11-14T05:14:56;3.20;99.90
12436;DHT22;6282;51.440;6.938;2022-11-14T05:17:22;3.60;99.90
12436;DHT22;6282;51.440;6.938;2022-11-14T05:19:49;3.90;99.90
12436;DHT22;6282;51.440;6.938;2022-11-14T05:22:16;4.30;99.90
12436;DHT22;6282;51.440;6.938;2022-11-14T05:24:43;3.90;99.90
12436;DHT22;6282;51.440;6.938;2022-11-14T05:27:10;3.70;99.90
12436;DHT22;6282;51.440;6.938;2022-11-14T05:29:38;3.40;99.90
12436;DHT22;6282;51.440;6.938;2022-11-14T05:32:05;3.00;99.90
12436;DHT22;6282;51.440;6.938;2022-11-14T05:34:31;2.90;99.90
12436;DHT22;6282;51.440;6.938;2022-11-14T05:36:58;2.80;99.90
12436;DHT22;6282;51.440;6.938;2022-11-14T05:39:25;3.00;99.90
12436;DHT22;6282;51.440;6.938;2022-11-14T05:41:52;3.10;99.90
12436;DHT22;6282;51.440;6.938;2022-11-14T05:44:18;3.30;99.90
12436;DHT22;6282;51.440;6.938;2022-11-14T05:46:47;3.10;99.90
12436;DHT22;6282;51.440;6.938;2022-11-14T05:49:13;3.10;99.90
12436;DHT22;6282;51.440;6.938;2022-11-14T05:51:40;3.20;99.90
12436;DHT22;6282;51.440;6.938;2022-11-14T05:54:07;3.00;99.90
12436;DHT22;6282;51.440;6.938;2022-11-14T05:56:34;3.00;99.90
12436;DHT22;6282;51.440;6.938;2022-11-14T05:59:01;3.00;99.90
12436;DHT22;6282;51.440;6.938;2022-11-14T06:01:28;3.00;99.90
12436;DHT22;6282;51.440;6.938;2022-11-14T06:03:56;3.00;99.90
12436;DHT22;6282;51.440;6.938;2022-11-14T06:06:23;3.00;99.90
12436;DHT22;6282;51.440;6.938;2022-11-14T06:08:51;2.90;99.90
12436;DHT22;6282;51.440;6.938;2022-11-14T06:11:19;3.30;99.90
12436;DHT22;6282;51.440;6.938;2022-11-14T06:13:46;3.00;99.90
12436;DHT22;6282;51.440;6.938;2022-11-14T06:16:15;3.20;99.90
12436;DHT22;6282;51.440;6.938;2022-11-14T06:18:47;3.20;99.90
12436;DHT22;6282;51.440;6.938;2022-11-14T06:21:18;3.20;99.90
12436;DHT22;6282;51.440;6.938;2022-11-14T06:23:45;3.30;99.90
12436;DHT22;6282;51.440;6.938;2022-11-14T06:26:18;3.10;99.90
12436;DHT22;6282;51.440;6.938;2022-11-14T06:28:46;3.80;99.90
12436;DHT22;6282;51.440;6.938;2022-11-14T06:31:14;3.60;99.90
12436;DHT22;6282;51.440;6.938;2022-11-14T06:33:40;3.60;99.90
12436;DHT22;6282;51.440;6.938;2022-11-14T06:36:08;3.60;99.90
12436;DHT22;6282;51.440;6.938;2022-11-14T06:38:38;3.50;99.90
12436;DHT22;6282;51.440;6.938;2022-11-14T06:41:06;3.30;99.90
12436;DHT22;6282;51.440;6.938;2022-11-14T06:43:33;3.20;99.90
12436;DHT22;6282;51.440;6.938;2022-11-14T06:46:01;3.40;99.90
12436;DHT22;6282;51.440;6.938;2022-11-14T06:48:28;3.60;99.90
12436;DHT22;6282;51.440;6.938;2022-11-14T06:50:56;3.80;99.90
12436;DHT22;6282;51.440;6.938;2022-11-14T06:53:24;4.10;99.90
12436;DHT22;6282;51.440;6.938;2022-11-14T06:55:54;4.10;99.90
12436;DHT22;6282;51.440;6.938;2022-11-14T06:58:23;4.20;99.90
12436;DHT22;6282;51.440;6.938;2022-11-14T07:00:50;4.00;99.90
12436;DHT22;6282;51.440;6.938;2022-11-14T07:03:17;3.90;99.90
12436;DHT22;6282;51.440;6.938;2022-11-14T07:05:44;4.10;99.90
12436;DHT22;6282;51.440;6.938;2022-11-14T07:08:10;4.30;99.90
12436;DHT22;6282;51.440;6.938;2022-11-14T07:10:37;4.20;99.90
12436;DHT22;6282;51.440;6.938;2022-11-14T07:13:06;4.30;99.90
12436;DHT22;6282;51.440;6.938;2022-11-14T07:15:34;4.60;99.90
12436;DHT22;6282;51.440;6.938;2022-11-14T07:18:00;4.50;99.90
12436;DHT22;6282;51.440;6.938;2022-11-14T07:20:27;4.60;99.90
12436;DHT22;6282;51.440;6.938;2022-11-14T07:22:54;4.50;99.90
12436;DHT22;6282;51.440;6.938;2022-11-14T07:25:21;4.40;99.90
12436;DHT22;6282;51.440;6.938;2022-11-14T07:27:48;4.50;99.90
12436;DHT22;6282;51.440;6.938;2022-11-14T07:30:16;4.30;99.90
12436;DHT22;6282;51.440;6.938;2022-11-14T07:32:43;4.30;99.90
12436;DHT22;6282;51.440;6.938;2022-11-14T07:35:09;4.60;99.90
12436;DHT22;6282;51.440;6.938;2022-11-14T07:37:36;4.70;99.90
12436;DHT22;6282;51.440;6.938;2022-11-14T07:40:03;5.40;99.90
12436;DHT22;6282;51.440;6.938;2022-11-14T07:42:30;5.70;99.90
12436;DHT22;6282;51.440;6.938;2022-11-14T07:44:57;6.10;99.90
12436;DHT22;6282;51.440;6.938;2022-11-14T07:47:25;6.30;99.90
12436;DHT22;6282;51.440;6.938;2022-11-14T07:49:52;6.40;99.90
12436;DHT22;6282;51.440;6.938;2022-11-14T07:52:22;6.50;99.90
12436;DHT22;6282;51.440;6.938;2022-11-14T07:54:49;6.60;99.90
12436;DHT22;6282;51.440;6.938;2022-11-14T07:57:15;6.80;99.90
12436;DHT22;6282;51.440;6.938;2022-11-14T07:59:42;6.80;99.90
12436;DHT22;6282;51.440;6.938;2022-11-14T08:02:11;6.90;99.90
12436;DHT22;6282;51.440;6.938;2022-11-14T08:04:40;7.00;99.90
12436;DHT22;6282;51.440;6.938;2022-11-14T08:07:07;7.00;99.90
12436;DHT22;6282;51.440;6.938;2022-11-14T08:09:34;6.90;99.90
12436;DHT22;6282;51.440;6.938;2022-11-14T08:12:00;6.80;99.90
12436;DHT22;6282;51.440;6.938;2022-11-14T08:14:27;7.10;99.90
12436;DHT22;6282;51.440;6.938;2022-11-14T08:16:54;7.20;99.90
12436;DHT22;6282;51.440;6.938;2022-11-14T08:19:21;7.10;99.90
12436;DHT22;6282;51.440;6.938;2022-11-14T08:21:49;7.10;99.90
12436;DHT22;6282;51.440;6.938;2022-11-14T08:24:15;7.20;99.90
12436;DHT22;6282;51.440;6.938;2022-11-14T08:26:43;7.20;99.90
12436;DHT22;6282;51.440;6.938;2022-11-14T08:29:10;7.20;99.90
12436;DHT22;6282;51.440;6.938;2022-11-14T08:31:37;7.20;99.90
12436;DHT22;6282;51.440;6.938;2022-11-14T08:34:04;7.10;99.90
12436;DHT22;6282;51.440;6.938;2022-11-14T08:36:31;7.30;99.90
12436;DHT22;6282;51.440;6.938;2022-11-14T08:38:59;7.60;99.90
12436;DHT22;6282;51.440;6.938;2022-11-14T08:41:25;7.40;99.90
12436;DHT22;6282;51.440;6.938;2022-11-14T08:43:52;7.70;99.90
12436;DHT22;6282;51.440;6.938;2022-11-14T08:46:19;7.80;99.90
12436;DHT22;6282;51.440;6.938;2022-11-14T08:48:46;8.00;99.90
12436;DHT22;6282;51.440;6.938;2022-11-14T08:51:13;9.90;99.90
12436;DHT22;6282;51.440;6.938;2022-11-14T08:53:39;10.10;99.90
12436;DHT22;6282;51.440;6.938;2022-11-14T08:56:09;10.10;99.90
12436;DHT22;6282;51.440;6.938;2022-11-14T08:58:36;8.90;99.90
12436;DHT22;6282;51.440;6.938;2022-11-14T09:01:04;8.40;99.90
12436;DHT22;6282;51.440;6.938;2022-11-14T09:03:32;8.20;99.90
12436;DHT22;6282;51.440;6.938;2022-11-14T09:05:59;8.30;99.90
12436;DHT22;6282;51.440;6.938;2022-11-14T09:08:27;8.30;99.90
12436;DHT22;6282;51.440;6.938;2022-11-14T09:10:54;8.20;99.90
12436;DHT22;6282;51.440;6.938;2022-11-14T09:13:22;8.30;99.90
12436;DHT22;6282;51.440;6.938;2022-11-14T09:15:48;8.40;99.90
12436;DHT22;6282;51.440;6.938;2022-11-14T09:18:15;8.50;99.90
12436;DHT22;6282;51.440;6.938;2022-11-14T09:20:42;8.20;99.90
12436;DHT22;6282;51.440;6.938;2022-11-14T09:23:09;8.00;99.90
12436;DHT22;6282;51.440;6.938;2022-11-14T09:25:36;8.00;99.90
12436;DHT22;6282;51.440;6.938;2022-11-14T09:28:05;8.00;99.90
12436;DHT22;6282;51.440;6.938;2022-11-14T09:30:35;8.00;99.90
12436;DHT22;6282;51.440;6.938;2022-11-14T09:33:03;8.00;99.90
12436;DHT22;6282;51.440;6.938;2022-11-14T09:35:31;7.90;99.90
12436;DHT22;6282;51.440;6.938;2022-11-14T09:37:59;8.20;99.90
12436;DHT22;6282;51.440;6.938;2022-11-14T09:40:26;8.20;99.90
12436;DHT22;6282;51.440;6.938;2022-11-14T09:43:17;8.30;99.90
12436;DHT22;6282;51.440;6.938;2022-11-14T09:45:51;8.30;99.90
12436;DHT22;6282;51.440;6.938;2022-11-14T09:48:21;8.40;99.90
12436;DHT22;6282;51.440;6.938;2022-11-14T09:50:57;8.40;99.90
12436;DHT22;6282;51.440;6.938;2022-11-14T09:53:32;8.30;99.90
12436;DHT22;6282;51.440;6.938;2022-11-14T09:55:59;8.30;99.90
12436;DHT22;6282;51.440;6.938;2022-11-14T09:58:27;8.30;99.90
12436;DHT22;6282;51.440;6.938;2022-11-14T10:00:59;8.40;99.90
12436;DHT22;6282;51.440;6.938;2022-11-14T10:03:35;8.50;99.90
12436;DHT22;6282;51.440;6.938;2022-11-14T10:06:16;8.30;1.00
12436;DHT22;6282;51.440;6.938;2022-11-14T10:08:55;8.30;1.00
12436;DHT22;6282;51.440;6.938;2022-11-14T10:11:32;8.30;1.00
12436;DHT22;6282;51.440;6.938;2022-11-14T10:14:19;8.30;99.90
12436;DHT22;6282;51.440;6.938;2022-11-14T10:16:55;8.30;99.90
12436;DHT22;6282;51.440;6.938;2022-11-14T10:19:29;8.20;99.90
12436;DHT22;6282;51.440;6.938;2022-11-14T10:22:10;8.40;1.00
12436;DHT22;6282;51.440;6.938;2022-11-14T10:24:50;8.40;99.90
12436;DHT22;6282;51.440;6.938;2022-11-14T10:27:24;8.20;1.00
12436;DHT22;6282;51.440;6.938;2022-11-14T10:30:06;8.20;1.00
12436;DHT22;6282;51.440;6.938;2022-11-14T10:32:54;8.20;1.00
12436;DHT22;6282;51.440;6.938;2022-11-14T10:35:28;8.10;99.90
12436;DHT22;6282;51.440;6.938;2022-11-14T10:38:01;8.10;1.00
12436;DHT22;6282;51.440;6.938;2022-11-14T10:40:34;8.20;1.00
12436;DHT22;6282;51.440;6.938;2022-11-14T10:43:10;8.10;1.00
12436;DHT22;6282;51.440;6.938;2022-11-14T10:45:45;8.20;1.00
12436;DHT22;6282;51.440;6.938;2022-11-14T10:48:19;8.20;99.90
12436;DHT22;6282;51.440;6.938;2022-11-14T10:50:54;8.10;99.90
12436;DHT22;6282;51.440;6.938;2022-11-14T10:53:28;8.20;1.00
12436;DHT22;6282;51.440;6.938;2022-11-14T10:56:00;8.20;1.00
12436;DHT22;6282;51.440;6.938;2022-11-14T10:58:27;8.10;99.90
12436;DHT22;6282;51.440;6.938;2022-11-14T11:00:54;8.30;94.60
12436;DHT22;6282;51.440;6.938;2022-11-14T11:03:39;8.40;99.90
12436;DHT22;6282;51.440;6.938;2022-11-14T11:06:23;8.40;1.00
12436;DHT22;6282;51.440;6.938;2022-11-14T11:08:51;8.50;99.90
12436;DHT22;6282;51.440;6.938;2022-11-14T11:11:37;8.50;67.40
12436;DHT22;6282;51.440;6.938;2022-11-14T11:14:04;8.50;1.00
12436;DHT22;6282;51.440;6.938;2022-11-14T11:16:31;8.60;1.00
12436;DHT22;6282;51.440;6.938;2022-11-14T11:19:17;8.50;99.90
12436;DHT22;6282;51.440;6.938;2022-11-14T11:21:49;8.80;99.90
12436;DHT22;6282;51.440;6.938;2022-11-14T11:24:30;8.80;1.00
12436;DHT22;6282;51.440;6.938;2022-11-14T11:27:19;9.10;99.90
12436;DHT22;6282;51.440;6.938;2022-11-14T11:30:00;9.00;1.00
12436;DHT22;6282;51.440;6.938;2022-11-14T11:32:27;9.00;1.00
12436;DHT22;6282;51.440;6.938;2022-11-14T11:34:56;9.10;1.00
12436;DHT22;6282;51.440;6.938;2022-11-14T11:37:25;9.00;1.00
12436;DHT22;6282;51.440;6.938;2022-11-14T11:39:55;9.20;1.00
12436;DHT22;6282;51.440;6.938;2022-11-14T11:42:25;9.30;1.00
12436;DHT22;6282;51.440;6.938;2022-11-14T11:44:58;9.50;1.00
12436;DHT22;6282;51.440;6.938;2022-11-14T11:47:29;9.60;1.00
12436;DHT22;6282;51.440;6.938;2022-11-14T11:50:00;9.80;1.00
12436;DHT22;6282;51.440;6.938;2022-11-14T11:52:32;9.60;99.90
12436;DHT22;6282;51.440;6.938;2022-11-14T11:55:02;9.60;1.00
12436;DHT22;6282;51.440;6.938;2022-11-14T11:57:35;9.50;99.90
12436;DHT22;6282;51.440;6.938;2022-11-14T12:00:06;9.40;1.00
12436;DHT22;6282;51.440;6.938;2022-11-14T12:02:35;9.40;1.00
12436;DHT22;6282;51.440;6.938;2022-11-14T12:05:14;9.60;99.90
12436;DHT22;6282;51.440;6.938;2022-11-14T12:07:45;9.80;99.90
12436;DHT22;6282;51.440;6.938;2022-11-14T12:10:19;9.90;99.90
12436;DHT22;6282;51.440;6.938;2022-11-14T12:15:46;9.80;1.00
12436;DHT22;6282;51.440;6.938;2022-11-14T12:21:32;9.80;93.40
12436;DHT22;6282;51.440;6.938;2022-11-14T12:24:40;10.00;1.00
12436;DHT22;6282;51.440;6.938;2022-11-14T12:27:34;9.90;99.90
12436;DHT22;6282;51.440;6.938;2022-11-14T12:30:11;9.90;1.00
12436;DHT22;6282;51.440;6.938;2022-11-14T12:32:42;9.80;1.00
12436;DHT22;6282;51.440;6.938;2022-11-14T12:35:17;9.90;1.00
12436;DHT22;6282;51.440;6.938;2022-11-14T12:37:49;9.80;1.00
12436;DHT22;6282;51.440;6.938;2022-11-14T12:40:25;9.80;1.00
12436;DHT22;6282;51.440;6.938;2022-11-14T12:42:53;9.70;99.90
12436;DHT22;6282;51.440;6.938;2022-11-14T12:45:59;9.80;1.00
12436;DHT22;6282;51.440;6.938;2022-11-14T12:48:35;9.80;1.00
12436;DHT22;6282;51.440;6.938;2022-11-14T12:51:04;9.70;1.00
12436;DHT22;6282;51.440;6.938;2022-11-14T12:53:42;9.70;1.00
12436;DHT22;6282;51.440;6.938;2022-11-14T13:02:26;9.70;1.00
12436;DHT22;6282;51.440;6.938;2022-11-14T13:05:17;9.60;1.00
12436;DHT22;6282;51.440;6.938;2022-11-14T13:07:54;9.70;1.00
12436;DHT22;6282;51.440;6.938;2022-11-14T13:10:29;9.70;1.00
12436;DHT22;6282;51.440;6.938;2022-11-14T13:13:01;9.70;1.00
12436;DHT22;6282;51.440;6.938;2022-11-14T13:15:50;9.80;1.00
12436;DHT22;6282;51.440;6.938;2022-11-14T13:18:35;9.80;1.00
12436;DHT22;6282;51.440;6.938;2022-11-14T13:21:22;9.80;1.00
12436;DHT22;6282;51.440;6.938;2022-11-14T13:24:07;10.00;1.00
12436;DHT22;6282;51.440;6.938;2022-11-14T13:26:44;9.90;1.00
12436;DHT22;6282;51.440;6.938;2022-11-14T13:32:57;10.00;1.00
12436;DHT22;6282;51.440;6.938;2022-11-14T13:35:36;10.00;1.00
12436;DHT22;6282;51.440;6.938;2022-11-14T13:47:42;9.80;99.90
12436;DHT22;6282;51.440;6.938;2022-11-14T13:50:15;9.80;99.90
12436;DHT22;6282;51.440;6.938;2022-11-14T13:52:45;9.80;99.90
12436;DHT22;6282;51.440;6.938;2022-11-14T13:55:19;9.80;99.90
12436;DHT22;6282;51.440;6.938;2022-11-14T13:57:56;9.80;99.90
12436;DHT22;6282;51.440;6.938;2022-11-14T14:00:47;9.80;99.90
12436;DHT22;6282;51.440;6.938;2022-11-14T14:03:33;9.80;99.90
12436;DHT22;6282;51.440;6.938;2022-11-14T14:06:19;9.70;1.00
12436;DHT22;6282;51.440;6.938;2022-11-14T14:09:05;9.70;99.90
12436;DHT22;6282;51.440;6.938;2022-11-14T14:12:03;9.70;1.00
12436;DHT22;6282;51.440;6.938;2022-11-14T14:14:46;9.70;99.90
12436;DHT22;6282;51.440;6.938;2022-11-14T14:17:21;9.70;99.90
12436;DHT22;6282;51.440;6.938;2022-11-14T14:20:02;9.70;99.90
12436;DHT22;6282;51.440;6.938;2022-11-14T14:22:37;9.70;99.90
12436;DHT22;6282;51.440;6.938;2022-11-14T14:25:15;9.70;99.90
12436;DHT22;6282;51.440;6.938;2022-11-14T14:27:53;9.70;1.00
12436;DHT22;6282;51.440;6.938;2022-11-14T14:30:22;9.70;99.90
12436;DHT22;6282;51.440;6.938;2022-11-14T14:33:02;9.70;1.00
12436;DHT22;6282;51.440;6.938;2022-11-14T14:35:32;9.70;1.00
12436;DHT22;6282;51.440;6.938;2022-11-14T14:38:00;9.70;99.90
12436;DHT22;6282;51.440;6.938;2022-11-14T14:40:29;9.60;99.90
12436;DHT22;6282;51.440;6.938;2022-11-14T14:42:59;9.60;99.90
12436;DHT22;6282;51.440;6.938;2022-11-14T14:45:28;9.60;99.90
12436;DHT22;6282;51.440;6.938;2022-11-14T14:48:00;9.60;1.00
12436;DHT22;6282;51.440;6.938;2022-11-14T14:50:32;9.60;1.00
12436;DHT22;6282;51.440;6.938;2022-11-14T14:53:02;9.60;1.00
12436;DHT22;6282;51.440;6.938;2022-11-14T14:55:31;9.60;1.00
12436;DHT22;6282;51.440;6.938;2022-11-14T14:58:12;9.60;1.00
12436;DHT22;6282;51.440;6.938;2022-11-14T15:00:49;9.60;1.00
12436;DHT22;6282;51.440;6.938;2022-11-14T15:03:17;9.60;1.00
12436;DHT22;6282;51.440;6.938;2022-11-14T15:05:45;9.50;1.00
12436;DHT22;6282;51.440;6.938;2022-11-14T15:08:13;9.50;1.00
12436;DHT22;6282;51.440;6.938;2022-11-14T15:10:42;9.50;1.00
12436;DHT22;6282;51.440;6.938;2022-11-14T15:13:13;9.50;99.90
12436;DHT22;6282;51.440;6.938;2022-11-14T15:15:41;9.50;99.90
12436;DHT22;6282;51.440;6.938;2022-11-14T15:18:15;9.50;99.90
12436;DHT22;6282;51.440;6.938;2022-11-14T15:21:05;9.50;99.90
12436;DHT22;6282;51.440;6.938;2022-11-14T15:23:33;9.50;84.80
12436;DHT22;6282;51.440;6.938;2022-11-14T15:26:01;9.40;1.00
12436;DHT22;6282;51.440;6.938;2022-11-14T15:28:28;9.50;99.90
12436;DHT22;6282;51.440;6.938;2022-11-14T15:30:57;9.40;99.90
12436;DHT22;6282;51.440;6.938;2022-11-14T15:33:29;9.40;99.90
12436;DHT22;6282;51.440;6.938;2022-11-14T15:36:08;9.50;78.10
12436;DHT22;6282;51.440;6.938;2022-11-14T15:38:35;9.40;99.90
12436;DHT22;6282;51.440;6.938;2022-11-14T15:41:15;9.40;99.90
12436;DHT22;6282;51.440;6.938;2022-11-14T15:43:48;9.40;99.90
12436;DHT22;6282;51.440;6.938;2022-11-14T15:46:39;9.40;99.90
12436;DHT22;6282;51.440;6.938;2022-11-14T15:49:07;9.30;99.90
12436;DHT22;6282;51.440;6.938;2022-11-14T15:51:44;9.30;99.90
12436;DHT22;6282;51.440;6.938;2022-11-14T15:54:26;9.30;99.90
12436;DHT22;6282;51.440;6.938;2022-11-14T15:56:54;9.30;99.90
12436;DHT22;6282;51.440;6.938;2022-11-14T15:59:21;9.20;99.90
12436;DHT22;6282;51.440;6.938;2022-11-14T16:01:51;9.20;1.00
12436;DHT22;6282;51.440;6.938;2022-11-14T16:04:20;9.20;1.00
12436;DHT22;6282;51.440;6.938;2022-11-14T16:06:49;9.20;1.00
12436;DHT22;6282;51.440;6.938;2022-11-14T16:09:17;9.20;1.00
12436;DHT22;6282;51.440;6.938;2022-11-14T16:11:45;9.10;1.00
12436;DHT22;6282;51.440;6.938;2022-11-14T16:14:12;9.10;99.90
12436;DHT22;6282;51.440;6.938;2022-11-14T16:16:39;9.20;99.90
12436;DHT22;6282;51.440;6.938;2022-11-14T16:19:07;9.10;99.90
12436;DHT22;6282;51.440;6.938;2022-11-14T16:21:36;9.10;99.90
12436;DHT22;6282;51.440;6.938;2022-11-14T16:24:05;9.10;99.90
12436;DHT22;6282;51.440;6.938;2022-11-14T16:26:32;9.10;99.90
12436;DHT22;6282;51.440;6.938;2022-11-14T16:28:58;9.00;1.00
12436;DHT22;6282;51.440;6.938;2022-11-14T16:31:25;9.00;1.00
12436;DHT22;6282;51.440;6.938;2022-11-14T16:33:52;9.00;1.00
12436;DHT22;6282;51.440;6.938;2022-11-14T16:36:20;9.10;99.90
12436;DHT22;6282;51.440;6.938;2022-11-14T16:38:48;9.10;99.90
12436;DHT22;6282;51.440;6.938;2022-11-14T16:41:17;9.00;77.70
12436;DHT22;6282;51.440;6.938;2022-11-14T16:43:45;9.00;99.90
12436;DHT22;6282;51.440;6.938;2022-11-14T16:46:11;9.00;1.00
12436;DHT22;6282;51.440;6.938;2022-11-14T16:48:38;9.00;1.00